Time;durP1;ratioP1;P1;durP2;ratioP2;P2;SDS_P1;SDS_P2;PMS_P1;PMS_P2;Temp;Humidity;BMP_temperature;BMP_pressure;BME280_temperature;BME280_humidity;BME280_pressure;Samples;Min_cycle;Max_cycle;Signal;HPM_P1;HPM_P2
2022/05/06 00:00:52;;;;;;;57.78;34.15;;;10.00;99.90;;;;;;2252229;63;20214;-69
2022/05/06 00:03:32;;;;;;;56.50;33.88;;;10.00;99.90;;;;;;2248303;63;20187;-69
2022/05/06 00:06:13;;;;;;;49.22;33.20;;;10.00;99.90;;;;;;2249854;63;20672;-69
2022/05/06 00:08:51;;;;;;;53.00;32.83;;;9.90;99.90;;;;;;2251146;63;20212;-69
2022/05/06 00:11:31;;;;;;;58.13;34.42;;;9.90;99.90;;;;;;2253212;63;20361;-71
2022/05/06 00:14:08;;;;;;;45.30;31.17;;;9.90;99.90;;;;;;2246309;63;20182;-68
2022/05/06 00:16:44;;;;;;;50.00;31.30;;;9.90;99.90;;;;;;2249072;63;20232;-69
2022/05/06 00:19:21;;;;;;;52.00;31.83;;;9.80;99.90;;;;;;2253562;63;20186;-69
2022/05/06 00:21:59;;;;;;;51.10;33.17;;;9.80;99.90;;;;;;2252944;63;20172;-70
2022/05/06 00:24:40;;;;;;;49.08;32.10;;;9.80;99.90;;;;;;2251443;63;20198;-70
2022/05/06 00:27:21;;;;;;;52.20;32.85;;;9.80;99.90;;;;;;2253000;63;20603;-71
2022/05/06 00:30:01;;;;;;;55.50;33.67;;;9.70;99.90;;;;;;2253791;63;20247;-69
2022/05/06 00:32:37;;;;;;;52.97;33.35;;;9.70;99.90;;;;;;2251254;63;20308;-69
2022/05/06 00:35:14;;;;;;;47.83;31.92;;;9.70;99.90;;;;;;2248799;63;20169;-69
2022/05/06 00:37:52;;;;;;;54.53;34.65;;;9.60;99.90;;;;;;2250563;63;20183;-69
2022/05/06 00:40:33;;;;;;;54.08;34.38;;;9.60;99.90;;;;;;2249618;63;20194;-69
2022/05/06 00:43:14;;;;;;;60.45;38.63;;;9.60;99.90;;;;;;2253598;63;20374;-68
2022/05/06 00:45:57;;;;;;;58.90;35.05;;;9.60;99.90;;;;;;2249673;63;20253;-68
2022/05/06 00:48:37;;;;;;;57.33;35.40;;;9.50;99.90;;;;;;2249486;63;20162;-68
2022/05/06 00:51:17;;;;;;;61.40;35.55;;;9.50;99.90;;;;;;2251891;63;20164;-68
2022/05/06 00:53:58;;;;;;;58.92;37.17;;;9.40;99.90;;;;;;2252103;63;20168;-68
2022/05/06 00:56:38;;;;;;;65.65;36.92;;;9.40;99.90;;;;;;2249746;63;20275;-70
2022/05/06 00:59:16;;;;;;;59.35;36.40;;;9.40;99.90;;;;;;2253642;63;20193;-69
2022/05/06 01:01:59;;;;;;;55.40;34.20;;;9.30;99.90;;;;;;2253099;63;20312;-69
2022/05/06 01:04:38;;;;;;;66.18;35.35;;;9.20;99.90;;;;;;2253006;63;20228;-70
2022/05/06 01:07:17;;;;;;;51.55;33.08;;;8.70;99.90;;;;;;2252362;63;20679;-70
2022/05/06 01:09:56;;;;;;;52.03;33.53;;;9.20;99.90;;;;;;2252365;63;20186;-72
2022/05/06 01:12:34;;;;;;;55.88;33.22;;;9.10;99.90;;;;;;2251343;63;20564;-71
2022/05/06 01:15:31;;;;;;;52.72;33.80;;;9.10;99.90;;;;;;2247550;63;20260;-70
2022/05/06 01:18:13;;;;;;;49.85;31.02;;;9.10;99.90;;;;;;2250808;63;20230;-69
2022/05/06 01:20:52;;;;;;;56.38;33.17;;;9.00;99.90;;;;;;2250167;63;20323;-69
2022/05/06 01:23:35;;;;;;;53.20;32.13;;;9.00;99.90;;;;;;2251445;63;20206;-71
2022/05/06 01:26:14;;;;;;;49.63;32.15;;;8.90;99.90;;;;;;2251196;63;20677;-69
2022/05/06 01:28:51;;;;;;;52.65;32.53;;;8.90;99.90;;;;;;2249144;63;20269;-69
2022/05/06 01:31:29;;;;;;;45.47;30.20;;;8.80;99.90;;;;;;2249058;63;20276;-69
2022/05/06 01:34:13;;;;;;;48.60;31.45;;;8.80;99.90;;;;;;2248200;63;20218;-69
2022/05/06 01:36:55;;;;;;;52.47;32.85;;;8.80;99.90;;;;;;2246809;63;20220;-69
2022/05/06 01:39:36;;;;;;;62.22;37.80;;;8.70;99.90;;;;;;2248954;63;20317;-69
2022/05/06 01:42:22;;;;;;;53.85;35.22;;;8.70;99.90;;;;;;2250066;63;20190;-70
2022/05/06 01:45:03;;;;;;;;;;;8.70;99.90;;;;;;2252899;63;20196;-69
2022/05/06 01:47:42;;;;;;;50.58;31.35;;;8.70;99.90;;;;;;2249001;63;20213;-69
2022/05/06 01:50:20;;;;;;;50.67;32.72;;;8.60;99.90;;;;;;2251984;63;20190;-69
2022/05/06 01:52:58;;;;;;;47.42;30.25;;;8.60;99.90;;;;;;2249589;63;20232;-69
2022/05/06 01:55:35;;;;;;;54.10;33.38;;;8.60;99.90;;;;;;2249487;63;20265;-70
2022/05/06 01:58:12;;;;;;;52.40;31.80;;;8.50;99.90;;;;;;2250596;63;20186;-68
2022/05/06 02:00:49;;;;;;;43.67;31.13;;;8.50;99.90;;;;;;2250183;63;20198;-69
2022/05/06 02:06:21;;;;;;;51.25;32.05;;;8.50;99.90;;;;;;2249714;63;20208;-70
2022/05/06 02:09:01;;;;;;;51.20;31.95;;;8.40;99.90;;;;;;2251835;63;20193;-69
2022/05/06 02:11:37;;;;;;;50.97;33.65;;;8.40;99.90;;;;;;2251424;63;20190;-70
2022/05/06 02:14:17;;;;;;;49.78;33.85;;;8.40;99.90;;;;;;2251402;63;20177;-68
2022/05/06 02:16:54;;;;;;;58.85;34.65;;;8.30;99.90;;;;;;2252517;63;20381;-68
2022/05/06 02:19:32;;;;;;;59.50;36.97;;;8.30;99.90;;;;;;2249955;63;20333;-69
2022/05/06 02:22:12;;;;;;;51.63;35.10;;;8.30;99.90;;;;;;2251515;63;20275;-69
2022/05/06 02:24:48;;;;;;;61.22;36.70;;;9.00;99.90;;;;;;2252286;63;20202;-70
2022/05/06 02:27:25;;;;;;;63.42;36.70;;;8.20;99.90;;;;;;2251559;63;20714;-70
2022/05/06 02:33:15;;;;;;;56.30;36.83;;;8.20;99.90;;;;;;2252128;63;20168;-70
2022/05/06 02:35:52;;;;;;;54.75;37.40;;;8.60;99.90;;;;;;2251085;63;20772;-70
2022/05/06 02:38:28;;;;;;;60.17;37.10;;;8.20;99.90;;;;;;2248301;63;20227;-69
2022/05/06 02:41:05;;;;;;;68.80;39.38;;;8.20;99.90;;;;;;2251546;63;20360;-69
2022/05/06 02:43:42;;;;;;;63.10;38.20;;;8.20;99.90;;;;;;2250462;63;20168;-69
2022/05/06 02:46:20;;;;;;;57.63;37.80;;;8.20;99.90;;;;;;2251118;63;20182;-69
2022/05/06 02:48:57;;;;;;;53.42;36.28;;;8.20;99.90;;;;;;2253067;63;20342;-71
2022/05/06 02:51:37;;;;;;;61.88;38.20;;;8.20;99.90;;;;;;2247635;63;20211;-70
2022/05/06 02:54:15;;;;;;;55.20;36.33;;;8.20;99.90;;;;;;2250398;63;20185;-70
2022/05/06 02:56:56;;;;;;;56.17;36.55;;;8.30;99.90;;;;;;2251728;63;20236;-70
2022/05/06 02:59:37;;;;;;;57.38;34.63;;;8.30;99.90;;;;;;2251366;63;20279;-70
2022/05/06 03:02:18;;;;;;;56.97;35.20;;;8.30;99.90;;;;;;2248667;63;20794;-69
2022/05/06 03:04:57;;;;;;;56.30;35.05;;;8.30;99.90;;;;;;2252012;63;20296;-71
2022/05/06 03:07:35;;;;;;;53.85;34.83;;;8.20;99.90;;;;;;2251815;63;20280;-71
2022/05/06 03:10:16;;;;;;;104.70;41.80;;;8.20;99.90;;;;;;2253905;63;20165;-69
2022/05/06 03:12:58;;;;;;;87.22;44.90;;;8.30;99.90;;;;;;2247867;63;20244;-68
2022/05/06 03:15:42;;;;;;;84.78;43.45;;;8.40;99.90;;;;;;2251206;63;20214;-68
2022/05/06 03:18:19;;;;;;;290.17;63.28;;;8.50;99.90;;;;;;2252412;63;20674;-71
2022/05/06 03:20:56;;;;;;;196.88;64.15;;;8.60;99.90;;;;;;2251611;63;20190;-69
2022/05/06 03:23:36;;;;;;;465.60;87.47;;;8.60;99.90;;;;;;2253773;63;20356;-70
2022/05/06 03:26:13;;;;;;;322.58;80.20;;;8.70;99.90;;;;;;2253217;63;20685;-69
2022/05/06 03:28:52;;;;;;;595.47;106.60;;;8.70;99.90;;;;;;2252430;63;20200;-70
2022/05/06 03:31:33;;;;;;;434.50;90.45;;;8.80;99.90;;;;;;2251167;63;20290;-72
2022/05/06 03:34:12;;;;;;;608.95;104.75;;;8.90;99.90;;;;;;2250600;63;20626;-70
2022/05/06 03:36:49;;;;;;;527.00;105.00;;;8.90;99.90;;;;;;2252914;63;20185;-70
2022/05/06 03:39:25;;;;;;;268.40;78.28;;;9.00;99.90;;;;;;2248084;63;20319;-69
2022/05/06 03:42:04;;;;;;;367.52;93.15;;;9.00;99.90;;;;;;2251126;63;20621;-70
2022/05/06 03:44:42;;;;;;;623.67;122.57;;;9.10;99.90;;;;;;2251695;63;20592;-69
2022/05/06 03:47:23;;;;;;;436.50;92.72;;;9.10;99.90;;;;;;2250432;63;20178;-69
2022/05/06 03:52:59;;;;;;;679.45;121.85;;;9.20;99.90;;;;;;2250834;63;20238;-70
2022/05/06 03:55:39;;;;;;;423.00;85.53;;;9.20;99.90;;;;;;2250020;63;20199;-70
2022/05/06 03:58:17;;;;;;;326.77;83.47;;;9.20;99.90;;;;;;2249625;63;20212;-70
2022/05/06 04:00:56;;;;;;;476.02;98.28;;;9.20;99.90;;;;;;2247383;63;20220;-70
2022/05/06 04:03:38;;;;;;;450.88;79.65;;;9.20;99.90;;;;;;2252528;63;20700;-69
2022/05/06 04:06:22;;;;;;;275.40;61.83;;;9.20;99.90;;;;;;2252288;63;20581;-69
2022/05/06 04:09:03;;;;;;;399.17;70.03;;;9.20;99.90;;;;;;2248261;63;20177;-69
2022/05/06 04:11:42;;;;;;;140.77;51.97;;;9.20;99.90;;;;;;2252725;63;20165;-70
2022/05/06 04:14:20;;;;;;;384.30;75.00;;;9.20;99.90;;;;;;2252718;63;20184;-70
2022/05/06 04:16:59;;;;;;;355.42;71.70;;;9.20;99.90;;;;;;2252445;63;20252;-70
2022/05/06 04:23:28;;;;;;;282.15;63.20;;;9.20;99.90;;;;;;2252941;63;20219;-70
2022/05/06 04:25:31;;;;;;;163.40;47.13;;;9.00;99.90;;;;;;2251622;63;20213;-69
2022/05/06 04:28:10;;;;;;;180.13;49.53;;;9.00;99.90;;;;;;2251633;63;20212;-70
2022/05/06 04:30:48;;;;;;;169.63;53.28;;;9.00;99.90;;;;;;2253623;63;20562;-70
2022/05/06 04:33:29;;;;;;;198.35;50.83;;;9.00;99.90;;;;;;2249243;63;20189;-69
2022/05/06 04:36:11;;;;;;;141.50;37.40;;;9.00;99.90;;;;;;2250856;63;20202;-71
2022/05/06 04:38:51;;;;;;;158.63;37.20;;;8.90;99.90;;;;;;2252411;63;20254;-69
2022/05/06 04:41:31;;;;;;;196.63;47.55;;;8.90;99.90;;;;;;2251225;63;20651;-69
2022/05/06 04:44:11;;;;;;;135.18;37.42;;;8.90;99.90;;;;;;2251671;63;20786;-71
2022/05/06 04:46:49;;;;;;;141.23;35.85;;;8.80;99.90;;;;;;2247283;63;20299;-69
2022/05/06 04:49:30;;;;;;;98.35;31.33;;;8.80;99.90;;;;;;2250216;63;20291;-69
2022/05/06 04:52:10;;;;;;;75.40;31.13;;;8.90;99.90;;;;;;2249454;63;20219;-70
2022/05/06 04:54:50;;;;;;;90.72;34.38;;;8.90;99.90;;;;;;2251843;63;20685;-69
2022/05/06 04:57:28;;;;;;;149.70;37.20;;;8.90;99.90;;;;;;2250594;63;20201;-69
2022/05/06 05:00:09;;;;;;;179.23;38.38;;;9.00;99.90;;;;;;2250502;63;20161;-69
2022/05/06 05:02:46;;;;;;;94.45;36.45;;;9.00;99.90;;;;;;2251142;63;20194;-71
2022/05/06 05:05:26;;;;;;;90.18;33.63;;;9.00;99.90;;;;;;2252161;63;20568;-71
2022/05/06 05:08:08;;;;;;;148.52;37.15;;;9.10;99.90;;;;;;2248213;63;20186;-70
2022/05/06 05:10:45;;;;;;;155.88;41.03;;;9.20;99.90;;;;;;2252227;63;20271;-70
2022/05/06 05:13:22;;;;;;;170.45;41.00;;;9.20;99.90;;;;;;2248981;63;20257;-70
2022/05/06 05:15:59;;;;;;;140.90;38.78;;;9.20;99.90;;;;;;2249423;63;20255;-69
2022/05/06 05:18:43;;;;;;;115.63;40.33;;;9.20;99.90;;;;;;2252940;63;20169;-71
2022/05/06 05:21:22;;;;;;;124.82;41.47;;;9.30;99.90;;;;;;2252179;63;20215;-69
2022/05/06 05:24:03;;;;;;;110.95;41.65;;;9.40;99.90;;;;;;2250553;63;20165;-70
2022/05/06 05:26:40;;;;;;;150.35;42.05;;;9.40;99.90;;;;;;2250346;63;20340;-71
2022/05/06 05:29:17;;;;;;;97.13;37.58;;;9.50;99.90;;;;;;2249309;63;20181;-70
2022/05/06 05:31:54;;;;;;;115.35;39.97;;;9.50;99.90;;;;;;2250612;63;20658;-69
2022/05/06 05:34:30;;;;;;;90.53;39.22;;;9.60;99.90;;;;;;2248899;63;20173;-70
2022/05/06 05:37:08;;;;;;;89.38;33.92;;;9.60;99.90;;;;;;2253072;63;20308;-70
2022/05/06 05:39:45;;;;;;;131.40;39.50;;;9.60;99.90;;;;;;2250163;63;20253;-69
2022/05/06 05:42:28;;;;;;;90.18;38.22;;;9.60;99.90;;;;;;2246877;63;20557;-70
2022/05/06 05:48:19;;;;;;;80.38;38.50;;;9.70;99.90;;;;;;2250252;63;20198;-70
2022/05/06 05:50:56;;;;;;;77.82;39.28;;;9.70;99.90;;;;;;2248682;63;20552;-69
2022/05/06 05:53:32;;;;;;;119.55;47.28;;;9.80;99.90;;;;;;2249626;63;20263;-71
2022/05/06 05:56:11;;;;;;;72.65;38.42;;;9.80;99.90;;;;;;2249857;63;20554;-69
2022/05/06 05:58:51;;;;;;;123.25;38.88;;;10.00;99.90;;;;;;2252799;63;20228;-69
2022/05/06 06:01:32;;;;;;;73.93;36.70;;;10.10;99.90;;;;;;2253261;63;20588;-71
2022/05/06 06:04:13;;;;;;;98.63;35.25;;;10.20;99.90;;;;;;2252425;63;20225;-69
2022/05/06 06:06:53;;;;;;;77.05;37.78;;;10.30;99.90;;;;;;2250425;63;20666;-69
2022/05/06 06:09:34;;;;;;;77.43;36.63;;;10.30;99.90;;;;;;2248452;63;20157;-70
2022/05/06 06:12:15;;;;;;;79.97;34.40;;;10.20;99.90;;;;;;2253249;63;20165;-70
2022/05/06 06:14:57;;;;;;;94.28;35.50;;;10.30;99.90;;;;;;2251823;63;20212;-69
2022/05/06 06:17:34;;;;;;;73.13;32.92;;;10.30;99.90;;;;;;2246642;63;20674;-69
2022/05/06 06:20:10;;;;;;;96.70;36.50;;;10.30;99.90;;;;;;2246011;63;20790;-69
2022/05/06 06:22:47;;;;;;;79.60;35.80;;;10.30;99.90;;;;;;2251274;63;20178;-70
2022/05/06 06:25:25;;;;;;;66.20;34.42;;;10.60;99.90;;;;;;2250681;63;20214;-68
2022/05/06 06:28:01;;;;;;;79.40;33.50;;;10.30;99.90;;;;;;2252355;63;20338;-70
2022/05/06 06:30:40;;;;;;;51.88;30.02;;;10.50;99.90;;;;;;2247378;63;20178;-69
2022/05/06 06:33:21;;;;;;;62.47;31.52;;;10.70;99.90;;;;;;2253292;63;20220;-70
2022/05/06 06:36:00;;;;;;;51.60;28.77;;;10.80;99.90;;;;;;2251704;63;20321;-69
2022/05/06 06:38:38;;;;;;;57.28;28.40;;;11.10;99.90;;;;;;2250375;63;20178;-70
2022/05/06 06:41:20;;;;;;;56.72;28.13;;;11.20;99.90;;;;;;2250701;63;20161;-69
2022/05/06 06:44:00;;;;;;;50.58;27.80;;;11.20;99.90;;;;;;2252159;63;20212;-70
2022/05/06 06:46:38;;;;;;;48.40;28.02;;;11.30;99.90;;;;;;2252795;63;20654;-69
2022/05/06 06:49:18;;;;;;;53.30;27.35;;;11.30;99.90;;;;;;2250167;63;20264;-69
2022/05/06 06:51:54;;;;;;;42.97;26.77;;;11.30;99.90;;;;;;2246780;63;21249;-70
2022/05/06 06:54:33;;;;;;;53.63;28.30;;;11.30;99.90;;;;;;2250855;63;20311;-69
2022/05/06 06:57:14;;;;;;;42.90;26.00;;;11.40;99.90;;;;;;2253953;63;20157;-70
2022/05/06 06:59:56;;;;;;;42.65;26.15;;;11.60;99.90;;;;;;2250251;63;20259;-69
2022/05/06 07:02:33;;;;;;;40.92;26.05;;;11.70;99.90;;;;;;2246912;63;20201;-70
2022/05/06 07:05:10;;;;;;;43.05;25.05;;;11.80;99.90;;;;;;2250436;63;20263;-72
2022/05/06 07:13:37;;;;;;;40.25;26.20;;;12.20;99.90;;;;;;2249040;63;20272;-72
2022/05/06 07:16:14;;;;;;;34.75;22.48;;;12.90;99.90;;;;;;2249967;63;20354;-71
2022/05/06 07:18:51;;;;;;;33.55;21.00;;;12.50;99.90;;;;;;2251331;63;20201;-71
2022/05/06 07:21:29;;;;;;;31.67;20.88;;;12.50;99.90;;;;;;2250305;63;20204;-70
2022/05/06 07:24:12;;;;;;;29.98;19.05;;;12.60;99.90;;;;;;2250110;63;20242;-70
2022/05/06 07:26:53;;;;;;;26.30;17.88;;;12.70;99.90;;;;;;2252946;63;20253;-70
2022/05/06 07:29:33;;;;;;;25.67;16.63;;;12.80;99.90;;;;;;2247600;63;20209;-70
2022/05/06 07:32:11;;;;;;;23.45;16.10;;;12.90;99.90;;;;;;2250052;63;20232;-70
2022/05/06 07:34:48;;;;;;;24.33;16.13;;;12.90;99.90;;;;;;2250218;63;20341;-73
2022/05/06 07:37:32;;;;;;;22.85;16.67;;;13.00;99.90;;;;;;2247722;63;20177;-71
2022/05/06 07:40:13;;;;;;;24.42;17.05;;;13.00;99.90;;;;;;2250909;63;20209;-71
2022/05/06 07:42:51;;;;;;;26.95;18.35;;;13.10;99.90;;;;;;2248961;63;20288;-71
2022/05/06 07:45:28;;;;;;;26.00;16.30;;;13.10;99.90;;;;;;2248845;63;20161;-74
2022/05/06 07:48:08;;;;;;;24.08;15.93;;;13.10;99.90;;;;;;2251314;63;20251;-71
2022/05/06 07:50:47;;;;;;;22.50;14.57;;;13.20;99.90;;;;;;2250827;63;20665;-72
2022/05/06 07:53:27;;;;;;;19.83;12.38;;;14.00;99.90;;;;;;2245898;63;20272;-72
2022/05/06 07:56:08;;;;;;;20.00;13.07;;;13.50;99.90;;;;;;2249028;63;20176;-71
2022/05/06 07:58:52;;;;;;;19.85;12.93;;;13.50;99.90;;;;;;2250899;63;20182;-70
2022/05/06 08:04:32;;;;;;;16.60;11.25;;;13.60;99.90;;;;;;2253923;63;20228;-72
2022/05/06 08:07:14;;;;;;;16.35;11.75;;;13.80;99.90;;;;;;2247941;63;20198;-74
2022/05/06 08:09:53;;;;;;;16.90;11.88;;;14.00;99.90;;;;;;2253539;63;20657;-72
2022/05/06 08:12:31;;;;;;;20.08;11.80;;;14.20;99.90;;;;;;2253536;63;20220;-72
2022/05/06 08:15:11;;;;;;;17.25;11.88;;;14.20;99.90;;;;;;2253480;63;20184;-73
2022/05/06 08:17:50;;;;;;;17.50;11.23;;;14.40;99.90;;;;;;2253863;63;20233;-72
2022/05/06 08:20:30;;;;;;;15.93;11.60;;;14.60;99.90;;;;;;2254000;63;20233;-68
2022/05/06 08:23:07;;;;;;;15.75;11.60;;;14.80;99.90;;;;;;2248778;63;20281;-71
2022/05/06 08:25:45;;;;;;;11.88;9.40;;;14.90;99.90;;;;;;2248298;63;20188;-72
2022/05/06 08:28:27;;;;;;;11.68;8.73;;;15.00;99.90;;;;;;2253553;63;20176;-72
2022/05/06 08:31:07;;;;;;;11.73;9.10;;;15.10;99.90;;;;;;2246645;63;20173;-70
2022/05/06 08:33:45;;;;;;;16.13;9.98;;;15.20;99.90;;;;;;2253059;63;20177;-73
2022/05/06 08:36:26;;;;;;;10.95;9.13;;;15.20;99.90;;;;;;2252424;63;20211;-71
2022/05/06 08:39:05;;;;;;;9.75;7.72;;;15.30;99.90;;;;;;2247597;63;20322;-71
2022/05/06 08:41:42;;;;;;;9.63;7.60;;;15.20;99.90;;;;;;2249116;63;20164;-72
2022/05/06 08:53:06;;;;;;;6.95;5.50;;;15.30;99.90;;;;;;2253088;63;20242;-72
2022/05/06 08:55:42;;;;;;;8.13;6.00;;;15.40;99.90;;;;;;2253533;63;20354;-70
2022/05/06 08:58:20;;;;;;;6.00;5.30;;;15.60;99.90;;;;;;2253601;63;20164;-70
2022/05/06 09:01:04;;;;;;;7.57;5.47;;;15.50;99.90;;;;;;2253201;63;20186;-72
2022/05/06 09:03:42;;;;;;;6.05;5.45;;;15.50;99.90;;;;;;2248733;63;20728;-71
2022/05/06 09:06:22;;;;;;;8.13;6.50;;;15.70;99.90;;;;;;2250072;63;20861;-72
2022/05/06 09:09:02;;;;;;;9.15;7.55;;;15.90;99.90;;;;;;2253871;63;20161;-70
2022/05/06 09:17:30;;;;;;;10.10;7.03;;;16.30;99.90;;;;;;2252589;63;20182;-70
2022/05/06 09:20:17;;;;;;;7.03;5.32;;;16.30;99.90;;;;;;2253825;63;20189;-68
2022/05/06 09:22:55;;;;;;;6.07;5.32;;;16.10;99.90;;;;;;2253192;63;20893;-71
2022/05/06 09:25:35;;;;;;;6.05;5.45;;;16.00;99.90;;;;;;2254097;63;20186;-72
2022/05/06 09:28:25;;;;;;;6.53;5.22;;;15.80;99.90;;;;;;2253547;63;20206;-72
2022/05/06 09:31:10;;;;;;;6.05;5.45;;;15.80;99.90;;;;;;2253877;63;20562;-73
2022/05/06 09:33:49;;;;;;;7.50;5.72;;;15.60;99.90;;;;;;2245521;63;20250;-73
2022/05/06 09:36:31;;;;;;;7.28;5.53;;;15.60;99.90;;;;;;2245990;63;20169;-72
2022/05/06 09:39:11;;;;;;;7.53;6.13;;;15.70;99.90;;;;;;2248778;63;20346;-71
2022/05/06 09:41:48;;;;;;;6.35;5.40;;;15.80;99.90;;;;;;2253807;63;20172;-72
2022/05/06 09:44:25;;;;;;;7.07;5.70;;;16.00;99.90;;;;;;2253732;63;20612;-72
2022/05/06 09:47:12;;;;;;;7.97;6.07;;;16.10;99.90;;;;;;2253473;63;20188;-73
2022/05/06 09:49:50;;;;;;;7.35;5.60;;;16.40;99.90;;;;;;2245801;63;20733;-74
2022/05/06 09:52:28;;;;;;;6.03;5.20;;;16.70;99.90;;;;;;2245714;63;20254;-75
2022/05/06 09:55:07;;;;;;;5.80;5.30;;;17.10;99.30;;;;;;2246124;63;20187;-70
2022/05/06 09:57:45;;;;;;;7.80;5.40;;;17.40;97.30;;;;;;2248308;63;20192;-71
2022/05/06 10:00:21;;;;;;;7.10;6.40;;;17.50;97.40;;;;;;2253762;63;20182;-71
2022/05/06 10:03:00;;;;;;;7.65;6.05;;;17.60;97.10;;;;;;2253669;63;20177;-70
2022/05/06 10:05:40;;;;;;;6.55;5.68;;;17.70;96.80;;;;;;2252743;63;20242;-71
2022/05/06 10:08:21;;;;;;;7.00;6.30;;;17.90;96.30;;;;;;2251184;63;20381;-72
2022/05/06 10:11:03;;;;;;;7.35;5.57;;;18.00;96.30;;;;;;2254656;63;20196;-72
2022/05/06 10:13:45;;;;;;;6.43;5.80;;;18.20;94.90;;;;;;2254982;63;20198;-71
2022/05/06 10:16:35;;;;;;;8.15;5.90;;;18.40;94.50;;;;;;2254687;63;20206;-73
2022/05/06 10:19:33;;;;;;;6.05;5.55;;;18.60;93.00;;;;;;2247096;63;20194;-70
2022/05/06 10:22:09;;;;;;;6.38;5.22;;;19.60;93.30;;;;;;2246799;63;20636;-72
2022/05/06 10:24:50;;;;;;;5.55;5.05;;;18.90;92.90;;;;;;2250264;63;20166;-71
2022/05/06 10:34:06;;;;;;;4.65;4.22;;;19.40;89.20;;;;;;2254617;63;20169;-74
2022/05/06 10:36:47;;;;;;;;;;;19.90;86.60;;;;;;2255265;63;20180;-67
2022/05/06 10:39:28;;;;;;;4.82;4.38;;;20.10;80.70;;;;;;2246571;63;20201;-69
2022/05/06 10:42:15;;;;;;;6.13;4.93;;;20.40;84.10;;;;;;2253097;63;20585;-69
2022/05/06 10:44:52;;;;;;;7.25;4.82;;;20.70;81.80;;;;;;2248713;63;20161;-70
2022/05/06 10:47:37;;;;;;;4.60;4.13;;;20.90;79.00;;;;;;2254759;63;20649;-69
2022/05/06 10:50:16;;;;;;;11.15;3.85;;;21.00;78.10;;;;;;2254480;63;20192;-68
2022/05/06 10:52:53;;;;;;;4.78;4.30;;;21.30;72.90;;;;;;2254682;63;20397;-68
2022/05/06 10:55:31;;;;;;;4.18;3.38;;;21.50;72.30;;;;;;2254595;63;20228;-70
2022/05/06 10:58:10;;;;;;;3.10;2.90;;;21.60;71.00;;;;;;2254494;63;20316;-69
2022/05/06 11:00:59;;;;;;;3.40;3.10;;;21.80;70.30;;;;;;2254646;63;20329;-69
2022/05/06 11:03:52;;;;;;;3.75;3.45;;;22.00;69.50;;;;;;2251530;63;20937;-69
2022/05/06 11:06:31;;;;;;;3.88;3.13;;;22.40;69.30;;;;;;2252734;63;20677;-69
2022/05/06 11:09:12;;;;;;;3.83;2.97;;;23.00;68.60;;;;;;2253906;63;20188;-69
2022/05/06 11:11:55;;;;;;;3.15;2.95;;;23.80;66.90;;;;;;2249395;63;20157;-68
2022/05/06 11:14:35;;;;;;;5.93;2.97;;;24.00;64.10;;;;;;2254220;63;20461;-71
2022/05/06 11:17:19;;;;;;;3.83;3.42;;;24.40;63.90;;;;;;2254558;63;20168;-69
2022/05/06 11:20:17;;;;;;;2.80;2.60;;;24.50;61.00;;;;;;2253597;63;20193;-72
2022/05/06 11:23:08;;;;;;;4.00;1.83;;;25.10;61.30;;;;;;2253667;63;20329;-74
2022/05/06 11:25:50;;;;;;;3.38;3.00;;;25.80;57.90;;;;;;2253777;63;20557;-74
2022/05/06 11:28:32;;;;;;;3.78;3.22;;;26.20;55.60;;;;;;2254454;63;20244;-71
2022/05/06 11:31:13;;;;;;;3.75;3.15;;;26.30;56.20;;;;;;2254233;63;20192;-71
2022/05/06 11:33:57;;;;;;;3.50;3.20;;;26.70;55.50;;;;;;2254376;63;20185;-71
2022/05/06 11:36:34;;;;;;;3.47;3.17;;;27.10;54.80;;;;;;2254167;63;20611;-71
2022/05/06 11:39:15;;;;;;;3.20;2.90;;;27.70;54.30;;;;;;2254087;63;21010;-72
2022/05/06 11:41:56;;;;;;;4.38;3.20;;;28.10;53.20;;;;;;2254331;63;20710;-71
2022/05/06 11:47:31;;;;;;;3.10;2.78;;;29.70;51.20;;;;;;2254418;63;20217;-73
2022/05/06 11:50:12;;;;;;;2.70;2.50;;;30.30;50.70;;;;;;2253942;63;20698;-73
2022/05/06 11:52:50;;;;;;;4.45;2.47;;;30.70;50.40;;;;;;2249577;63;20292;-72
2022/05/06 11:55:26;;;;;;;2.50;2.30;;;31.30;48.90;;;;;;2253677;63;20164;-74
2022/05/06 11:58:07;;;;;;;2.35;2.15;;;31.80;47.90;;;;;;2254208;63;20189;-72
2022/05/06 12:00:46;;;;;;;2.38;1.67;;;31.70;46.00;;;;;;2254160;63;20254;-73
2022/05/06 12:03:27;;;;;;;2.38;1.92;;;30.70;46.30;;;;;;2256384;63;20169;-70
2022/05/06 12:06:07;;;;;;;2.67;1.70;;;30.40;46.80;;;;;;2255091;63;20259;-72
2022/05/06 12:08:51;;;;;;;2.28;2.05;;;31.10;46.30;;;;;;2253980;63;20178;-72
2022/05/06 12:11:30;;;;;;;1.95;1.55;;;31.70;45.90;;;;;;2254687;63;20208;-71
2022/05/06 12:14:09;;;;;;;2.85;2.03;;;30.90;45.50;;;;;;2254089;63;20177;-71
2022/05/06 12:17:06;;;;;;;2.05;1.42;;;30.10;46.30;;;;;;2254191;63;20165;-72
2022/05/06 12:19:46;;;;;;;3.15;1.52;;;30.10;47.40;;;;;;2253247;63;20198;-71
2022/05/06 12:22:26;;;;;;;1.77;1.45;;;30.90;46.20;;;;;;2254131;63;20208;-76
2022/05/06 12:25:13;;;;;;;1.67;1.10;;;31.60;45.20;;;;;;2252534;63;20287;-73
2022/05/06 12:28:03;;;;;;;2.33;1.60;;;31.90;44.30;;;;;;2253711;63;20157;-72
2022/05/06 12:30:40;;;;;;;2.92;1.83;;;31.90;43.50;;;;;;2253383;63;20216;-72
2022/05/06 12:33:20;;;;;;;2.60;2.40;;;31.70;44.20;;;;;;2254101;63;20165;-72
2022/05/06 12:36:01;;;;;;;1.80;1.70;;;31.30;45.00;;;;;;2250708;63;20624;-74
2022/05/06 12:38:40;;;;;;;2.28;2.08;;;31.60;44.80;;;;;;2248054;63;20195;-73
2022/05/06 12:41:23;;;;;;;3.63;2.65;;;32.20;46.00;;;;;;2251447;63;20251;-73
2022/05/06 12:44:27;;;;;;;3.20;2.05;;;33.30;44.40;;;;;;2253674;63;20680;-72
2022/05/06 12:50:16;;;;;;;3.05;2.75;;;33.90;42.60;;;;;;2246073;63;20187;-74
2022/05/06 12:52:56;;;;;;;3.88;2.90;;;34.10;41.60;;;;;;2252032;63;20286;-74
2022/05/06 12:55:33;;;;;;;5.43;2.67;;;33.10;42.30;;;;;;2254185;63;20176;-76
2022/05/06 12:58:15;;;;;;;5.28;2.83;;;32.90;44.20;;;;;;2247199;63;20209;-75
2022/05/06 13:00:57;;;;;;;3.00;2.80;;;32.30;43.80;;;;;;2253855;63;20160;-74
2022/05/06 13:03:36;;;;;;;3.08;2.78;;;32.00;43.60;;;;;;2253861;63;20165;-75
2022/05/06 13:06:14;;;;;;;3.92;2.67;;;31.80;44.10;;;;;;2253613;63;20192;-75
2022/05/06 13:08:55;;;;;;;3.38;3.08;;;31.90;44.50;;;;;;2253392;63;20165;-74
2022/05/06 13:11:41;;;;;;;56.50;8.35;;;31.20;45.10;;;;;;2253447;63;20696;-74
2022/05/06 13:14:22;;;;;;;9.40;3.45;;;30.80;45.60;;;;;;2249219;63;20169;-73
2022/05/06 13:17:01;;;;;;;3.60;3.30;;;30.80;46.10;;;;;;2251747;63;20240;-72
2022/05/06 13:19:41;;;;;;;3.33;2.70;;;31.10;45.10;;;;;;2253749;63;20552;-74
2022/05/06 13:22:20;;;;;;;3.25;2.25;;;32.20;45.00;;;;;;2253310;63;20192;-72
2022/05/06 13:25:00;;;;;;;8.02;3.30;;;33.60;43.50;;;;;;2248954;63;20253;-72
2022/05/06 13:27:36;;;;;;;3.35;2.85;;;33.80;42.10;;;;;;2253720;63;20271;-72
2022/05/06 13:30:14;;;;;;;3.92;2.58;;;33.10;42.10;;;;;;2252708;63;20209;-72
2022/05/06 13:32:53;;;;;;;5.55;3.92;;;32.00;42.30;;;;;;2252546;63;20232;-70
2022/05/06 13:35:31;;;;;;;5.00;3.58;;;31.10;43.40;;;;;;2251751;63;20214;-72
2022/05/06 13:38:11;;;;;;;5.13;3.75;;;30.20;44.50;;;;;;2252737;63;20189;-74
2022/05/06 13:40:48;;;;;;;7.28;4.15;;;29.90;44.80;;;;;;2250227;63;20205;-73
2022/05/06 13:43:29;;;;;;;4.00;3.60;;;29.80;46.10;;;;;;2254853;63;20380;-72
2022/05/06 13:46:10;;;;;;;5.95;4.60;;;29.10;46.30;;;;;;2254533;63;20217;-72
2022/05/06 13:48:46;;;;;;;5.50;3.63;;;28.50;47.00;;;;;;2254949;63;20168;-72
2022/05/06 13:51:23;;;;;;;4.03;3.53;;;27.80;48.20;;;;;;2254894;63;20205;-71
2022/05/06 13:54:00;;;;;;;4.70;3.47;;;27.50;49.30;;;;;;2254468;63;20279;-69
2022/05/06 13:59:33;;;;;;;4.90;4.05;;;27.70;50.10;;;;;;2254552;63;20601;-73
2022/05/06 14:02:13;;;;;;;3.70;3.40;;;29.50;48.60;;;;;;2247343;63;20322;-71
2022/05/06 14:04:51;;;;;;;4.28;3.70;;;31.00;46.10;;;;;;2253288;63;20169;-70
2022/05/06 14:07:32;;;;;;;6.57;3.88;;;32.30;43.00;;;;;;2248469;63;20218;-70
2022/05/06 14:10:16;;;;;;;5.50;4.20;;;32.30;42.20;;;;;;2253409;63;20803;-72
2022/05/06 14:12:52;;;;;;;5.13;4.40;;;31.20;42.70;;;;;;2254163;63;20346;-73
2022/05/06 14:15:33;;;;;;;4.53;4.13;;;30.10;44.00;;;;;;2253339;63;20201;-72
2022/05/06 14:18:14;;;;;;;5.90;4.13;;;29.10;45.10;;;;;;2254812;63;20733;-70
2022/05/06 14:20:57;;;;;;;5.88;5.30;;;28.10;46.50;;;;;;2254583;63;20267;-70
2022/05/06 14:23:38;;;;;;;5.47;4.90;;;27.00;48.00;;;;;;2254111;63;20187;-74
2022/05/06 14:26:17;;;;;;;6.43;5.30;;;26.20;49.40;;;;;;2254244;63;20318;-73
2022/05/06 14:28:55;;;;;;;6.03;5.43;;;25.60;50.40;;;;;;2254176;63;20198;-70
2022/05/06 14:31:36;;;;;;;6.25;5.65;;;25.10;51.10;;;;;;2254533;63;20321;-68
2022/05/06 14:34:20;;;;;;;7.07;5.40;;;24.60;52.10;;;;;;2253975;63;20767;-69
2022/05/06 14:36:59;;;;;;;7.70;5.38;;;24.50;53.90;;;;;;2254318;63;20258;-69